createdAt,value
2019-01-16T00:00:37.617Z,1000.81
2019-01-16T00:01:37.642Z,1000.75
2019-01-16T00:02:37.664Z,1000.75
2019-01-16T00:03:37.690Z,1000.76
2019-01-16T00:04:37.764Z,1000.70
2019-01-16T00:05:37.742Z,1000.73
2019-01-16T00:06:37.779Z,1000.76
2019-01-16T00:07:37.789Z,1000.69
2019-01-16T00:08:37.815Z,1000.68
2019-01-16T00:09:37.839Z,1000.74
2019-01-16T00:10:37.865Z,1000.72
2019-01-16T00:11:37.889Z,1000.65
2019-01-16T00:12:37.914Z,1000.72
2019-01-16T00:13:37.941Z,1000.72
2019-01-16T00:14:37.964Z,1000.68
2019-01-16T00:15:37.989Z,1000.69
2019-01-16T00:16:38.016Z,1000.67
2019-01-16T00:17:38.038Z,1000.67
2019-01-16T00:18:38.065Z,1000.60
2019-01-16T00:19:38.089Z,1000.63
2019-01-16T00:20:38.114Z,1000.60
2019-01-16T00:21:38.140Z,1000.61
2019-01-16T00:22:38.166Z,1000.59
2019-01-16T00:23:38.186Z,1000.66
2019-01-16T00:24:38.211Z,1000.61
2019-01-16T00:25:38.237Z,1000.66
2019-01-16T00:26:38.262Z,1000.60
2019-01-16T00:27:38.286Z,1000.62
2019-01-16T00:28:38.312Z,1000.61
2019-01-16T00:29:38.335Z,1000.58
2019-01-16T00:30:38.362Z,1000.59
2019-01-16T00:31:38.383Z,1000.57
2019-01-16T00:32:38.409Z,1000.62
2019-01-16T00:33:38.434Z,1000.56
2019-01-16T00:34:38.459Z,1000.57
2019-01-16T00:35:38.482Z,1000.62
2019-01-16T00:36:38.507Z,1000.56
2019-01-16T00:37:38.531Z,1000.55
2019-01-16T00:38:38.556Z,1000.53
2019-01-16T00:39:38.581Z,1000.52
2019-01-16T00:40:38.606Z,1000.55
2019-01-16T00:41:38.630Z,1000.57
2019-01-16T00:42:38.654Z,1000.55
2019-01-16T00:43:38.678Z,1000.52
2019-01-16T00:44:38.702Z,1000.50
2019-01-16T00:45:38.728Z,1000.52
2019-01-16T00:46:38.751Z,1000.51
2019-01-16T00:47:38.777Z,1000.50
2019-01-16T00:48:38.800Z,1000.51
2019-01-16T00:49:38.826Z,1000.49
2019-01-16T00:50:38.847Z,1000.53
2019-01-16T00:51:38.873Z,1000.48
2019-01-16T00:52:38.898Z,1000.48
2019-01-16T00:53:38.922Z,1000.39
2019-01-16T00:54:38.946Z,1000.40
2019-01-16T00:55:38.969Z,1000.45
2019-01-16T00:56:38.998Z,1000.46
2019-01-16T00:57:39.019Z,1000.44
2019-01-16T00:58:39.044Z,1000.42
2019-01-16T00:59:39.067Z,1000.45
2019-01-16T01:00:39.090Z,1000.41
2019-01-16T01:01:39.115Z,1000.35
2019-01-16T01:02:39.142Z,1000.37
2019-01-16T01:03:39.167Z,1000.38
2019-01-16T01:04:39.187Z,1000.35
2019-01-16T01:05:39.212Z,1000.40
2019-01-16T01:06:39.236Z,1000.34
2019-01-16T01:07:39.260Z,1000.37
2019-01-16T01:08:39.283Z,1000.34
2019-01-16T01:09:39.309Z,1000.31
2019-01-16T01:10:39.334Z,1000.33
2019-01-16T01:11:39.357Z,1000.37
2019-01-16T01:12:39.381Z,1000.33
2019-01-16T01:13:39.409Z,1000.31
2019-01-16T01:14:39.428Z,1000.25
2019-01-16T01:15:39.452Z,1000.23
2019-01-16T01:16:39.478Z,1000.23
2019-01-16T01:17:39.502Z,1000.20
2019-01-16T01:18:41.018Z,1000.21
2019-01-16T01:19:39.549Z,1000.26
2019-01-16T01:20:39.573Z,1000.27
2019-01-16T01:21:39.597Z,1000.29
2019-01-16T01:22:39.622Z,1000.29
2019-01-16T01:23:39.645Z,1000.30
2019-01-16T01:24:39.669Z,1000.31
2019-01-16T01:25:39.694Z,1000.31
2019-01-16T01:26:39.718Z,1000.28
2019-01-16T01:27:39.743Z,1000.30
2019-01-16T01:28:39.765Z,1000.31
2019-01-16T01:29:39.789Z,1000.32
2019-01-16T01:30:39.811Z,1000.30
2019-01-16T01:31:39.834Z,1000.36
2019-01-16T01:32:39.859Z,1000.39
2019-01-16T01:33:39.883Z,1000.34
2019-01-16T01:34:39.910Z,1000.33
2019-01-16T01:35:39.931Z,1000.33
2019-01-16T01:36:39.954Z,1000.28
2019-01-16T01:37:40.049Z,1000.31
2019-01-16T01:38:40.053Z,1000.31
2019-01-16T01:39:40.027Z,1000.28
2019-01-16T01:40:40.049Z,1000.29
2019-01-16T01:41:40.072Z,1000.30
2019-01-16T01:42:40.096Z,1000.26
2019-01-16T01:43:40.120Z,1000.26
2019-01-16T01:44:40.154Z,1000.27
2019-01-16T01:45:40.168Z,1000.27
2019-01-16T01:46:40.190Z,1000.23
2019-01-16T01:47:40.215Z,1000.28
2019-01-16T01:48:40.390Z,1000.24
2019-01-16T01:49:40.263Z,1000.24
2019-01-16T01:50:40.286Z,1000.20
2019-01-16T01:51:40.308Z,1000.25
2019-01-16T01:52:40.332Z,1000.25
2019-01-16T01:53:40.356Z,1000.25
2019-01-16T01:54:40.379Z,1000.27
2019-01-16T01:55:40.402Z,1000.21
2019-01-16T01:56:40.427Z,1000.27
2019-01-16T01:57:40.450Z,1000.28
2019-01-16T01:58:40.525Z,1000.25
2019-01-16T01:59:40.495Z,1000.25
2019-01-16T02:00:40.520Z,1000.26
2019-01-16T02:01:40.547Z,1000.21
2019-01-16T02:02:40.567Z,1000.23
2019-01-16T02:03:40.590Z,1000.20
2019-01-16T02:04:40.613Z,1000.21
2019-01-16T02:05:40.640Z,1000.21
2019-01-16T02:06:40.660Z,1000.17
2019-01-16T02:07:40.683Z,1000.17
2019-01-16T02:08:40.710Z,1000.17
2019-01-16T02:09:40.730Z,1000.13
2019-01-16T02:10:40.753Z,1000.12
2019-01-16T02:11:40.780Z,1000.11
2019-01-16T02:12:40.801Z,1000.10
2019-01-16T02:13:40.824Z,1000.11
2019-01-16T02:14:40.847Z,1000.15
2019-01-16T02:15:40.868Z,1000.13
2019-01-16T02:16:40.893Z,1000.12
2019-01-16T02:17:40.916Z,1000.16
2019-01-16T02:18:47.292Z,1000.13
2019-01-16T02:19:40.962Z,1000.10
2019-01-16T02:20:40.989Z,1000.11
2019-01-16T02:21:41.012Z,1000.05
2019-01-16T02:22:41.031Z,1000.08
2019-01-16T02:23:41.055Z,1000.07
2019-01-16T02:24:41.077Z,1000.03
2019-01-16T02:25:41.102Z,1000.04
2019-01-16T02:26:41.125Z,1000.03
2019-01-16T02:27:41.147Z,999.99
2019-01-16T02:28:41.170Z,1000.03
2019-01-16T02:29:41.194Z,1000.02
2019-01-16T02:30:41.219Z,1000.04
2019-01-16T02:31:41.239Z,1000.03
2019-01-16T02:32:41.266Z,1000.01
2019-01-16T02:33:41.285Z,1000.03
2019-01-16T02:34:41.310Z,1000.03
2019-01-16T02:35:41.331Z,1000.01
2019-01-16T02:36:41.405Z,999.97
2019-01-16T02:37:41.379Z,1000.02
2019-01-16T02:38:41.402Z,1000.02
2019-01-16T02:39:41.425Z,999.97
2019-01-16T02:40:41.446Z,999.98
2019-01-16T02:41:41.471Z,999.96
2019-01-16T02:42:41.502Z,999.95
2019-01-16T02:43:41.515Z,999.91
2019-01-16T02:44:41.538Z,999.92
2019-01-16T02:45:41.561Z,999.94
2019-01-16T02:46:41.585Z,999.91
2019-01-16T02:47:41.608Z,999.85
2019-01-16T02:48:41.632Z,999.89
2019-01-16T02:49:41.653Z,999.85
2019-01-16T02:50:41.679Z,999.81
2019-01-16T02:51:41.699Z,999.85
2019-01-16T02:52:41.722Z,999.82
2019-01-16T02:53:41.746Z,999.81
2019-01-16T02:54:41.768Z,999.79
2019-01-16T02:55:41.791Z,999.72
2019-01-16T02:56:41.817Z,999.74
2019-01-16T02:57:41.837Z,999.73
2019-01-16T02:58:41.859Z,999.68
2019-01-16T02:59:41.885Z,999.67
2019-01-16T03:00:41.906Z,999.69
2019-01-16T03:01:41.932Z,999.63
2019-01-16T03:02:41.951Z,999.66
2019-01-16T03:03:41.974Z,999.61
2019-01-16T03:04:42.052Z,999.59
2019-01-16T03:05:42.021Z,999.56
2019-01-16T03:06:42.079Z,999.54
2019-01-16T03:07:42.066Z,999.52
2019-01-16T03:08:42.088Z,999.53
2019-01-16T03:09:42.115Z,999.54
2019-01-16T03:10:42.134Z,999.52
2019-01-16T03:11:42.157Z,999.53
2019-01-16T03:12:42.178Z,999.49
2019-01-16T03:13:42.201Z,999.48
2019-01-16T03:14:42.234Z,999.44
2019-01-16T03:15:42.247Z,999.46
2019-01-16T03:16:42.271Z,999.36
2019-01-16T03:17:42.292Z,999.39
2019-01-16T03:18:42.318Z,999.38
2019-01-16T03:19:42.341Z,999.35
2019-01-16T03:20:42.361Z,999.35
2019-01-16T03:21:42.383Z,999.37
2019-01-16T03:22:42.406Z,999.38
2019-01-16T03:23:42.428Z,999.38
2019-01-16T03:24:42.452Z,999.33
2019-01-16T03:25:42.484Z,999.34
2019-01-16T03:26:42.499Z,999.31
2019-01-16T03:27:42.521Z,999.26
2019-01-16T03:28:42.541Z,999.27
2019-01-16T03:29:42.565Z,999.22
2019-01-16T03:30:42.592Z,999.23
2019-01-16T03:31:42.612Z,999.15
2019-01-16T03:32:42.643Z,999.15
2019-01-16T03:33:42.658Z,999.14
2019-01-16T03:34:42.679Z,999.10
2019-01-16T03:35:42.702Z,999.16
2019-01-16T03:36:42.727Z,999.13
2019-01-16T03:37:42.746Z,999.11
2019-01-16T03:38:42.771Z,999.10
2019-01-16T03:39:42.792Z,999.13
2019-01-16T03:40:42.814Z,999.10
2019-01-16T03:41:42.839Z,999.01
2019-01-16T03:42:42.861Z,999.03
2019-01-16T03:43:42.884Z,998.96
2019-01-16T03:44:42.908Z,999.00
2019-01-16T03:45:42.931Z,998.87
2019-01-16T03:46:42.951Z,998.85
2019-01-16T03:47:42.973Z,998.90
2019-01-16T03:48:42.997Z,998.92
2019-01-16T03:49:43.023Z,998.87
2019-01-16T03:50:43.048Z,998.78
2019-01-16T03:51:43.069Z,998.76
2019-01-16T03:52:43.087Z,998.69
2019-01-16T03:53:43.110Z,998.74
2019-01-16T03:54:43.137Z,998.79
2019-01-16T03:55:43.154Z,998.82
2019-01-16T03:56:43.180Z,998.81
2019-01-16T03:57:43.201Z,998.79
2019-01-16T03:58:43.226Z,998.83
2019-01-16T03:59:43.246Z,998.82
2019-01-16T04:00:43.302Z,998.76
2019-01-16T04:01:43.293Z,998.68
2019-01-16T04:02:43.320Z,998.69
2019-01-16T04:03:43.337Z,998.70
2019-01-16T04:04:43.359Z,998.64
2019-01-16T04:05:43.385Z,998.57
2019-01-16T04:06:43.407Z,998.57
2019-01-16T04:07:43.429Z,998.53
2019-01-16T04:08:43.453Z,998.55
2019-01-16T04:09:43.473Z,998.52
2019-01-16T04:10:43.496Z,998.44
2019-01-16T04:11:43.520Z,998.44
2019-01-16T04:12:43.540Z,998.41
2019-01-16T04:13:43.614Z,998.38
2019-01-16T04:14:43.645Z,998.46
2019-01-16T04:15:43.608Z,998.54
2019-01-16T04:16:43.633Z,998.61
2019-01-16T04:17:43.656Z,998.60
2019-01-16T04:18:43.678Z,998.60
2019-01-16T04:19:43.701Z,998.58
2019-01-16T04:20:43.722Z,998.57
2019-01-16T04:21:43.746Z,998.51
2019-01-16T04:22:43.768Z,998.54
2019-01-16T04:23:43.790Z,998.53
2019-01-16T04:24:43.813Z,998.50
2019-01-16T04:25:43.836Z,998.48
2019-01-16T04:26:43.859Z,998.50
2019-01-16T04:27:43.880Z,998.50
2019-01-16T04:28:43.905Z,998.51
2019-01-16T04:29:43.927Z,998.45
2019-01-16T04:30:43.951Z,998.41
2019-01-16T04:31:43.973Z,998.37
2019-01-16T04:32:43.995Z,998.39
2019-01-16T04:33:44.019Z,998.41
2019-01-16T04:34:44.041Z,998.36
2019-01-16T04:35:44.063Z,998.37
2019-01-16T04:36:44.087Z,998.37
2019-01-16T04:37:44.109Z,998.30
2019-01-16T04:38:44.132Z,998.38
2019-01-16T04:39:44.153Z,998.42
2019-01-16T04:40:44.180Z,998.40
2019-01-16T04:41:44.199Z,998.34
2019-01-16T04:42:44.226Z,998.41
2019-01-16T04:43:44.246Z,998.43
2019-01-16T04:44:44.269Z,998.43
2019-01-16T04:45:44.295Z,998.43
2019-01-16T04:46:44.315Z,998.42
2019-01-16T04:47:44.337Z,998.36
2019-01-16T04:48:44.359Z,998.32
2019-01-16T04:49:44.392Z,998.29
2019-01-16T04:50:44.406Z,998.28
2019-01-16T04:51:44.428Z,998.32
2019-01-16T04:52:44.451Z,998.29
2019-01-16T04:53:44.473Z,998.23
2019-01-16T04:54:44.496Z,998.25
2019-01-16T04:55:44.517Z,998.28
2019-01-16T04:56:44.540Z,998.25
2019-01-16T04:57:44.566Z,998.21
2019-01-16T04:58:44.592Z,998.16
2019-01-16T04:59:44.607Z,998.17
2019-01-16T05:00:44.631Z,998.19
2019-01-16T05:01:44.656Z,998.22
2019-01-16T05:02:44.728Z,998.25
2019-01-16T05:03:44.700Z,998.24
2019-01-16T05:04:44.722Z,998.20
2019-01-16T05:05:44.744Z,998.18
2019-01-16T05:06:44.768Z,998.21
2019-01-16T05:07:44.790Z,998.23
2019-01-16T05:08:44.812Z,998.23
2019-01-16T05:09:44.836Z,998.21
2019-01-16T05:10:44.861Z,998.20
2019-01-16T05:11:44.883Z,998.20
2019-01-16T05:12:44.923Z,998.23
2019-01-16T05:13:44.927Z,998.25
2019-01-16T05:14:44.951Z,998.23
2019-01-16T05:15:44.970Z,998.26
2019-01-16T05:16:44.993Z,998.19
2019-01-16T05:17:45.017Z,998.21
2019-01-16T05:18:45.040Z,998.19
2019-01-16T05:19:45.062Z,998.24
2019-01-16T05:20:45.085Z,998.32
2019-01-16T05:21:45.107Z,998.35
2019-01-16T05:22:45.129Z,998.32
2019-01-16T05:23:45.153Z,998.25
2019-01-16T05:24:45.176Z,998.24
2019-01-16T05:25:45.198Z,998.23
2019-01-16T05:26:45.220Z,998.26
2019-01-16T05:27:45.245Z,998.24
2019-01-16T05:28:45.265Z,998.23
2019-01-16T05:29:45.289Z,998.23
2019-01-16T05:30:45.311Z,998.20
2019-01-16T05:31:45.333Z,998.22
2019-01-16T05:32:45.358Z,998.20
2019-01-16T05:33:45.380Z,998.21
2019-01-16T05:34:45.402Z,998.20
2019-01-16T05:35:45.425Z,998.10
2019-01-16T05:36:45.450Z,998.11
2019-01-16T05:37:45.474Z,998.09
2019-01-16T05:38:45.492Z,998.12
2019-01-16T05:39:45.514Z,998.15
2019-01-16T05:40:45.537Z,998.16
2019-01-16T05:41:45.560Z,998.18
2019-01-16T05:42:45.585Z,998.15
2019-01-16T05:43:45.606Z,998.14
2019-01-16T05:44:45.628Z,998.16
2019-01-16T05:45:45.657Z,998.13
2019-01-16T05:46:45.673Z,998.13
2019-01-16T05:47:45.696Z,998.11
2019-01-16T05:48:45.730Z,998.14
2019-01-16T05:49:46.737Z,998.11
2019-01-16T05:50:45.763Z,998.10
2019-01-16T05:51:45.788Z,998.10
2019-01-16T05:52:45.809Z,998.12
2019-01-16T05:53:45.831Z,998.08
2019-01-16T05:54:45.854Z,997.99
2019-01-16T05:55:45.876Z,998.01
2019-01-16T05:56:45.898Z,997.98
2019-01-16T05:57:45.920Z,997.91
2019-01-16T05:58:45.945Z,997.91
2019-01-16T05:59:45.968Z,997.86
2019-01-16T06:00:45.991Z,997.90
2019-01-16T06:01:46.013Z,997.86
2019-01-16T06:02:46.040Z,997.77
2019-01-16T06:03:46.058Z,997.80
2019-01-16T06:04:46.080Z,997.86
2019-01-16T06:05:46.104Z,997.86
2019-01-16T06:06:46.125Z,997.86
2019-01-16T06:07:46.147Z,997.80
2019-01-16T06:08:46.171Z,997.80
2019-01-16T06:09:46.192Z,997.80
2019-01-16T06:10:46.219Z,997.76
2019-01-16T06:11:46.236Z,997.77
2019-01-16T06:12:46.260Z,997.80
2019-01-16T06:13:46.283Z,997.78
2019-01-16T06:14:46.305Z,997.76
2019-01-16T06:15:46.327Z,997.73
2019-01-16T06:16:46.350Z,997.81
2019-01-16T06:17:46.372Z,997.83
2019-01-16T06:18:46.397Z,997.82
2019-01-16T06:19:46.417Z,997.75
2019-01-16T06:20:46.439Z,997.73
2019-01-16T06:21:46.463Z,997.75
2019-01-16T06:22:46.489Z,997.75
2019-01-16T06:23:46.506Z,997.76
2019-01-16T06:24:46.530Z,997.73
2019-01-16T06:25:46.553Z,997.72
2019-01-16T06:26:46.583Z,997.75
2019-01-16T06:27:46.598Z,997.77
2019-01-16T06:28:46.623Z,997.81
2019-01-16T06:29:46.644Z,997.78
2019-01-16T06:30:46.666Z,997.79
2019-01-16T06:31:46.689Z,997.73
2019-01-16T06:32:46.711Z,997.69
2019-01-16T06:33:46.736Z,997.68
2019-01-16T06:34:46.769Z,997.62
2019-01-16T06:35:46.785Z,997.68
2019-01-16T06:36:46.801Z,997.69
2019-01-16T06:37:46.825Z,997.73
2019-01-16T06:38:46.848Z,997.72
2019-01-16T06:39:46.868Z,997.72
2019-01-16T06:40:46.892Z,997.75
2019-01-16T06:41:46.916Z,997.75
2019-01-16T06:42:46.938Z,997.78
2019-01-16T06:43:46.958Z,997.76
2019-01-16T06:44:46.982Z,997.71
2019-01-16T06:45:47.005Z,997.68
2019-01-16T06:46:47.030Z,997.64
2019-01-16T06:47:47.049Z,997.68
2019-01-16T06:48:47.074Z,997.67
2019-01-16T06:49:47.096Z,997.65
2019-01-16T06:50:47.120Z,997.67
2019-01-16T06:51:47.139Z,997.61
2019-01-16T06:52:47.163Z,997.60
2019-01-16T06:53:47.191Z,997.54
2019-01-16T06:54:47.210Z,997.58
2019-01-16T06:55:47.230Z,997.53
2019-01-16T06:56:47.255Z,997.51
2019-01-16T06:57:47.277Z,997.48
2019-01-16T06:58:47.298Z,997.39
2019-01-16T06:59:47.322Z,997.42
2019-01-16T07:00:47.343Z,997.37
2019-01-16T07:01:47.367Z,997.39
2019-01-16T07:02:47.389Z,997.37
2019-01-16T07:03:47.412Z,997.36
2019-01-16T07:04:47.435Z,997.40
2019-01-16T07:05:47.457Z,997.37
2019-01-16T07:06:47.480Z,997.42
2019-01-16T07:07:47.501Z,997.42
2019-01-16T07:08:47.524Z,997.40
2019-01-16T07:09:47.547Z,997.43
2019-01-16T07:10:47.570Z,997.44
2019-01-16T07:11:47.593Z,997.45
2019-01-16T07:12:47.617Z,997.42
2019-01-16T07:13:47.637Z,997.37
2019-01-16T07:14:47.658Z,997.43
2019-01-16T07:15:47.682Z,997.38
2019-01-16T07:16:47.705Z,997.43
2019-01-16T07:17:47.727Z,997.34
2019-01-16T07:18:47.750Z,997.33
2019-01-16T07:19:47.772Z,997.31
2019-01-16T07:20:47.797Z,997.37
2019-01-16T07:21:47.817Z,997.45
2019-01-16T07:22:47.840Z,997.43
2019-01-16T07:23:47.863Z,997.43
2019-01-16T07:24:47.885Z,997.41
2019-01-16T07:25:47.909Z,997.44
2019-01-16T07:26:47.932Z,997.44
2019-01-16T07:27:47.953Z,997.44
2019-01-16T07:28:47.976Z,997.43
2019-01-16T07:29:47.998Z,997.37
2019-01-16T07:30:48.021Z,997.33
2019-01-16T07:31:48.043Z,997.36
2019-01-16T07:32:48.067Z,997.41
2019-01-16T07:33:48.089Z,997.43
2019-01-16T07:34:48.111Z,997.47
2019-01-16T07:35:48.134Z,997.41
2019-01-16T07:36:48.157Z,997.35
2019-01-16T07:37:48.178Z,997.32
2019-01-16T07:38:48.203Z,997.32
2019-01-16T07:39:48.247Z,997.31
2019-01-16T07:40:48.247Z,997.34
2019-01-16T07:41:48.276Z,997.34
2019-01-16T07:42:48.308Z,997.36
2019-01-16T07:43:48.315Z,997.30
2019-01-16T07:44:48.338Z,997.33
2019-01-16T07:45:48.360Z,997.37
2019-01-16T07:46:48.535Z,997.41
2019-01-16T07:47:48.406Z,997.40
2019-01-16T07:48:48.428Z,997.45
2019-01-16T07:49:48.451Z,997.47
2019-01-16T07:50:48.479Z,997.42
2019-01-16T07:51:48.498Z,997.52
2019-01-16T07:52:48.519Z,997.51
2019-01-16T07:53:48.542Z,997.47
2019-01-16T07:54:48.567Z,997.46
2019-01-16T07:55:48.589Z,997.46
2019-01-16T07:56:48.611Z,997.49
2019-01-16T07:57:48.636Z,997.47
2019-01-16T07:58:48.657Z,997.39
2019-01-16T07:59:48.680Z,997.36
2019-01-16T08:00:48.705Z,997.36
2019-01-16T08:01:48.725Z,997.43
2019-01-16T08:02:48.750Z,997.38
2019-01-16T08:03:48.775Z,997.41
2019-01-16T08:04:48.797Z,997.41
2019-01-16T08:05:48.852Z,997.41
2019-01-16T08:06:48.843Z,997.40
2019-01-16T08:07:48.865Z,997.34
2019-01-16T08:08:48.889Z,997.36
2019-01-16T08:09:48.912Z,997.39
2019-01-16T08:10:48.937Z,997.47
2019-01-16T08:11:48.960Z,997.43
2019-01-16T08:12:48.984Z,997.44
2019-01-16T08:13:49.006Z,997.44
2019-01-16T08:14:49.028Z,997.43
2019-01-16T08:15:49.105Z,997.41
2019-01-16T08:16:49.076Z,997.45
2019-01-16T08:17:49.100Z,997.41
2019-01-16T08:18:49.124Z,997.43
2019-01-16T08:19:49.148Z,997.42
2019-01-16T08:20:49.170Z,997.44
2019-01-16T08:21:49.193Z,997.42
2019-01-16T08:22:49.215Z,997.40
2019-01-16T08:23:49.239Z,997.42
2019-01-16T08:24:49.263Z,997.39
2019-01-16T08:25:49.284Z,997.42
2019-01-16T08:26:49.311Z,997.39
2019-01-16T08:27:49.331Z,997.44
2019-01-16T08:28:49.354Z,997.38
2019-01-16T08:29:49.378Z,997.36
2019-01-16T08:30:49.402Z,997.34
2019-01-16T08:31:49.426Z,997.36
2019-01-16T08:32:49.447Z,997.34
2019-01-16T08:33:49.472Z,997.34
2019-01-16T08:34:49.498Z,997.32
2019-01-16T08:35:49.518Z,997.32
2019-01-16T08:36:49.552Z,997.42
2019-01-16T08:37:49.565Z,997.54
2019-01-16T08:38:49.588Z,997.54
2019-01-16T08:39:49.612Z,997.50
2019-01-16T08:40:49.635Z,997.52
2019-01-16T08:41:49.660Z,997.48
2019-01-16T08:42:49.684Z,997.49
2019-01-16T08:43:49.706Z,997.40
2019-01-16T08:44:49.733Z,997.40
2019-01-16T08:45:49.755Z,997.47
2019-01-16T08:46:49.781Z,997.44
2019-01-16T08:47:49.804Z,997.48
2019-01-16T08:48:49.830Z,997.48
2019-01-16T08:49:49.852Z,997.45
2019-01-16T08:50:49.880Z,997.45
2019-01-16T08:51:49.904Z,997.42
2019-01-16T08:52:51.881Z,997.44
2019-01-16T08:53:49.955Z,997.46
2019-01-16T08:54:49.980Z,997.40
2019-01-16T08:55:50.005Z,997.44
2019-01-16T08:56:50.031Z,997.47
2019-01-16T08:57:50.061Z,997.32
2019-01-16T08:58:50.085Z,997.37
2019-01-16T08:59:50.111Z,997.27
2019-01-16T09:00:50.139Z,997.19
2019-01-16T09:01:50.165Z,997.19
2019-01-16T09:02:50.192Z,997.25
2019-01-16T09:03:50.218Z,997.42
2019-01-16T09:04:50.247Z,997.36
2019-01-16T09:05:50.275Z,997.27
2019-01-16T09:06:50.299Z,997.29
2019-01-16T09:07:50.325Z,997.47
2019-01-16T09:08:50.360Z,997.52
2019-01-16T09:09:50.383Z,997.54
2019-01-16T09:10:50.411Z,997.56
2019-01-16T09:11:50.439Z,997.49
2019-01-16T09:12:50.472Z,997.54
2019-01-16T09:13:50.496Z,997.49
2019-01-16T09:14:50.529Z,997.50
2019-01-16T09:15:50.554Z,997.47
2019-01-16T09:16:50.581Z,997.26
2019-01-16T09:17:50.613Z,997.48
2019-01-16T09:18:50.640Z,997.32
2019-01-16T09:19:50.671Z,997.48
2019-01-16T09:20:50.700Z,997.45
2019-01-16T09:21:50.732Z,997.46
2019-01-16T09:22:50.760Z,997.46
2019-01-16T09:23:50.792Z,997.50
2019-01-16T09:24:50.821Z,997.43
2019-01-16T09:25:50.854Z,997.38
2019-01-16T09:26:50.884Z,997.35
2019-01-16T09:27:50.913Z,997.30
2019-01-16T09:28:50.947Z,997.25
2019-01-16T09:29:50.977Z,997.20
2019-01-16T09:30:51.009Z,997.20
2019-01-16T09:31:51.039Z,997.17
2019-01-16T09:32:51.073Z,997.21
2019-01-16T09:33:51.104Z,997.19
2019-01-16T09:34:51.136Z,997.17
2019-01-16T09:35:51.168Z,997.18
2019-01-16T09:36:51.200Z,997.14
2019-01-16T09:37:51.230Z,997.15
2019-01-16T09:38:51.264Z,997.15
2019-01-16T09:39:51.295Z,997.02
2019-01-16T09:40:51.332Z,997.03
2019-01-16T09:41:51.360Z,997.06
2019-01-16T09:42:51.394Z,997.18
2019-01-16T09:43:51.424Z,996.98
2019-01-16T09:44:51.457Z,997.03
2019-01-16T09:45:51.541Z,997.08
2019-01-16T09:46:51.522Z,996.94
2019-01-16T09:47:51.598Z,997.03
2019-01-16T09:48:51.587Z,997.12
2019-01-16T09:49:51.621Z,997.15
2019-01-16T09:50:51.652Z,997.01
2019-01-16T09:51:51.685Z,997.01
2019-01-16T09:52:51.725Z,996.98
2019-01-16T09:53:51.751Z,997.06
2019-01-16T09:54:51.784Z,996.96
2019-01-16T09:55:51.819Z,996.92
2019-01-16T09:56:51.852Z,997.05
2019-01-16T09:57:51.932Z,997.11
2019-01-16T09:58:51.916Z,997.10
2019-01-16T09:59:51.950Z,997.07
2019-01-16T10:00:51.983Z,997.05
2019-01-16T10:01:52.017Z,997.01
2019-01-16T10:02:52.050Z,997.13
2019-01-16T10:03:52.334Z,997.03
2019-01-16T10:04:52.116Z,997.18
2019-01-16T10:05:52.171Z,997.13
2019-01-16T10:06:52.187Z,997.20
2019-01-16T10:07:52.221Z,997.04
2019-01-16T10:08:52.258Z,996.88
2019-01-16T10:09:52.289Z,996.92
2019-01-16T10:10:52.326Z,996.95
2019-01-16T10:11:52.360Z,996.89
2019-01-16T10:12:52.398Z,996.64
2019-01-16T10:13:52.429Z,996.70
2019-01-16T10:14:52.467Z,996.88
2019-01-16T10:15:52.502Z,996.83
2019-01-16T10:16:52.547Z,996.76
2019-01-16T10:17:52.572Z,996.71
2019-01-16T10:18:52.613Z,996.58
2019-01-16T10:19:52.644Z,996.64
2019-01-16T10:20:55.761Z,996.84
2019-01-16T10:21:52.713Z,996.74
2019-01-16T10:22:52.752Z,996.66
2019-01-16T10:23:52.788Z,996.67
2019-01-16T10:24:52.823Z,996.73
2019-01-16T10:25:52.857Z,996.75
2019-01-16T10:26:52.894Z,996.73
2019-01-16T10:27:52.930Z,996.72
2019-01-16T10:28:52.965Z,996.68
2019-01-16T10:29:53.002Z,996.56
2019-01-16T10:30:53.040Z,996.66
2019-01-16T10:31:53.078Z,996.48
2019-01-16T10:32:53.110Z,996.47
2019-01-16T10:33:53.147Z,996.36
2019-01-16T10:34:53.185Z,996.33
2019-01-16T10:35:53.224Z,996.27
2019-01-16T10:36:53.262Z,996.26
2019-01-16T10:37:53.293Z,996.30
2019-01-16T10:38:53.332Z,996.26
2019-01-16T10:39:53.365Z,996.12
2019-01-16T10:40:53.403Z,996.09
2019-01-16T10:41:53.440Z,996.13
2019-01-16T10:42:53.478Z,996.09
2019-01-16T10:43:53.511Z,996.06
2019-01-16T10:44:53.549Z,995.99
2019-01-16T10:45:53.585Z,995.97
2019-01-16T10:46:53.625Z,995.88
2019-01-16T10:47:53.658Z,995.91
2019-01-16T10:48:53.694Z,995.85
2019-01-16T10:49:53.731Z,995.79
2019-01-16T10:50:53.773Z,995.67
2019-01-16T10:51:53.803Z,995.62
2019-01-16T10:52:53.839Z,995.60
2019-01-16T10:53:53.876Z,995.57
2019-01-16T10:54:53.913Z,995.45
2019-01-16T10:55:53.947Z,995.41
2019-01-16T10:56:53.984Z,995.41
2019-01-16T10:57:54.020Z,995.45
2019-01-16T10:58:54.055Z,995.46
2019-01-16T10:59:54.142Z,995.37
2019-01-16T11:00:54.125Z,995.45
2019-01-16T11:01:54.162Z,995.62
2019-01-16T11:02:54.197Z,995.67
2019-01-16T11:03:54.232Z,995.66
2019-01-16T11:04:54.268Z,995.67
2019-01-16T11:05:54.354Z,995.54
2019-01-16T11:06:54.340Z,995.57
2019-01-16T11:07:54.374Z,995.49
2019-01-16T11:08:54.409Z,995.71
2019-01-16T11:09:54.447Z,995.59
2019-01-16T11:10:54.484Z,995.45
2019-01-16T11:11:54.518Z,995.81
2019-01-16T11:12:54.555Z,995.81
2019-01-16T11:13:54.590Z,995.78
2019-01-16T11:14:54.627Z,995.81
2019-01-16T11:15:54.677Z,995.79
2019-01-16T11:16:56.817Z,995.87
2019-01-16T11:17:54.736Z,995.87
2019-01-16T11:18:56.326Z,995.71
2019-01-16T11:19:54.809Z,995.66
2019-01-16T11:20:54.847Z,995.72
2019-01-16T11:21:54.885Z,995.71
2019-01-16T11:22:54.921Z,995.56
2019-01-16T11:23:54.959Z,995.57
2019-01-16T11:24:54.997Z,995.59
2019-01-16T11:25:55.034Z,995.55
2019-01-16T11:26:55.122Z,995.43
2019-01-16T11:27:55.111Z,995.19
2019-01-16T11:28:55.149Z,995.29
2019-01-16T11:29:55.188Z,994.96
2019-01-16T11:30:55.226Z,994.88
2019-01-16T11:31:55.266Z,994.90
2019-01-16T11:32:55.305Z,994.90
2019-01-16T11:33:55.341Z,994.63
2019-01-16T11:34:55.384Z,994.86
2019-01-16T11:35:55.418Z,994.49
2019-01-16T11:36:55.456Z,994.37
2019-01-16T11:37:55.496Z,994.60
2019-01-16T11:38:55.535Z,994.66
2019-01-16T11:39:55.573Z,994.61
2019-01-16T11:40:55.610Z,995.03
2019-01-16T11:41:55.646Z,994.91
2019-01-16T11:42:55.808Z,994.89
2019-01-16T11:43:55.722Z,994.97
2019-01-16T11:44:55.758Z,995.27
2019-01-16T11:45:55.797Z,995.21
2019-01-16T11:46:55.833Z,995.26
2019-01-16T11:47:55.871Z,995.15
2019-01-16T11:48:55.910Z,995.09
2019-01-16T11:49:55.945Z,995.00
2019-01-16T11:50:55.984Z,995.00
2019-01-16T11:51:56.024Z,995.16
2019-01-16T11:52:56.059Z,995.15
2019-01-16T11:53:56.097Z,995.09
2019-01-16T11:54:56.135Z,995.07
2019-01-16T11:55:56.172Z,995.06
2019-01-16T11:56:56.212Z,995.03
2019-01-16T11:57:56.250Z,995.15
2019-01-16T11:58:56.289Z,995.03
2019-01-16T11:59:56.326Z,995.08
2019-01-16T12:00:56.365Z,995.01
2019-01-16T12:01:56.404Z,994.93
2019-01-16T12:02:56.444Z,995.08
2019-01-16T12:03:56.482Z,995.09
2019-01-16T12:04:56.522Z,995.21
2019-01-16T12:05:56.559Z,995.02
2019-01-16T12:06:56.600Z,994.83
2019-01-16T12:07:56.637Z,994.84
2019-01-16T12:08:56.677Z,994.43
2019-01-16T12:09:56.715Z,994.22
2019-01-16T12:10:56.755Z,994.22
2019-01-16T12:11:56.793Z,994.33
2019-01-16T12:12:56.832Z,994.56
2019-01-16T12:13:56.873Z,994.76
2019-01-16T12:14:56.910Z,994.76
2019-01-16T12:15:56.948Z,994.72
2019-01-16T12:16:56.988Z,994.43
2019-01-16T12:17:57.027Z,994.26
2019-01-16T12:18:57.064Z,994.25
2019-01-16T12:19:57.102Z,994.51
2019-01-16T12:20:57.141Z,994.61
2019-01-16T12:21:57.179Z,994.19
2019-01-16T12:22:57.219Z,994.10
2019-01-16T12:23:57.255Z,994.10